• Join FlightAware (Why Join?)
  • Login
  • US Flag 
12:26PM EDT


 

Airport Tracker/Info


-or-


 

Live Flight TrackerFlight Track Log ✈ UAL1116 ✈ 18-Jun-2014 ✈ KEWR - KBOS

Flight Track Log - Related Links

Times and Time Zones

All times are in EDT time to prevent confusion due to time zone crossing. See the UAL1116 flight status page for this flight to view local times or setup timezone preferences in your user account.

Time Position Orientation Groundspeed Altitude Reporting Facility
EDT Latitude Longitude Course Direction KTS MPH feet Rate Location/Type
04:19PM 40.9280 -73.7452 72° East 371 427 10,900  Level FlightAware ADS-B (KSNC)
04:20PM 40.9454 -73.6983 56° Northeast 371 427 11,800 1,320 Climbing FlightAware ADS-B (KSNC)
04:20PM 40.9788 -73.6516 43° Northeast 367 422 12,100 1,560 Climbing FlightAware ADS-B (KSNC)
04:21PM 41.0359 -73.5804 44° Northeast 368 423 13,800 2,160 Climbing FlightAware ADS-B (KSNC)
04:21PM 41.0770 -73.5285 44° Northeast 386 444 15,000 2,040 Climbing FlightAware ADS-B (KSNC)
04:23PM 41.1540 -73.3812 69° East 428 493 17,500 2,040 Climbing FlightAware ADS-B (KSNC)
04:23PM 41.1860 -73.2743 68° East 437 503 18,900 2,100 Climbing FlightAware ADS-B (KSNC)
04:24PM 41.2090 -73.1978 68° East 443 510 20,000 1,800 Climbing FlightAware ADS-B (KSNC)
04:25PM 41.2410 -73.0985 67° East 445 512 21,000 1,080 Climbing FlightAware ADS-B (KSNC)
04:25PM 41.2733 -72.9994 67° East 446 513 21,500 1,140 Climbing FlightAware ADS-B (KSNC)
04:26PM 41.2945 -72.9335 67° East 453 521 22,400 1,440 Climbing FlightAware ADS-B (KSNC)
04:26PM 41.3242 -72.8407 67° East 463 533 23,000 480 Climbing FlightAware ADS-B (KSNC)
04:27PM 41.3545 -72.7451 67° East 464 534 23,000  Level FlightAware ADS-B (KSNC)
04:27PM 41.3821 -72.6581 67° East 463 533 23,000  Level FlightAware ADS-B (KSNC)
04:28PM 41.4152 -72.5538 67° East 459 528 23,000  Level FlightAware ADS-B (KSNC)
04:29PM 41.4400 -72.4753 67° East 457 526 23,000  Level FlightAware ADS-B (KSNC)
04:29PM 41.4807 -72.3458 67° East 458 527 23,000  Level FlightAware ADS-B (KSNC)
04:30PM 41.5058 -72.2655 68° East 457 526 23,000  Level FlightAware ADS-B (KSNC)
04:31PM 41.5382 -72.1617 68° East 453 521 23,000  Level FlightAware ADS-B (KSNC)
04:31PM 41.5690 -72.0626 68° East 455 524 23,000 -120 Level FlightAware ADS-B (KSNC)
04:32PM 41.5932 -71.9844 68° East 456 525 22,900 -1,440 Descending FlightAware ADS-B (KSNC)
04:32PM 41.6235 -71.8862 68° East 454 522 21,400 -2,280 Descending FlightAware ADS-B (KSNC)
04:34PM 41.7167 -71.5820 68° East 431 496 17,000 -2,220 Descending FlightAware ADS-B (KASH)
04:35PM 41.7430 -71.4963 69° East 416 479 15,700 -2,160 Descending FlightAware ADS-B (KASH)
04:35PM 41.7643 -71.4259 69° East 410 472 14,700 -2,100 Descending FlightAware ADS-B (KASH)
04:36PM 41.7950 -71.3239 69° East 402 463 13,200 -2,100 Descending FlightAware ADS-B (KASH)
04:37PM 41.8268 -71.2184 68° East 396 456 11,600 -1,680 Descending FlightAware ADS-B (KASH)
04:37PM 41.8470 -71.1505 68° East 395 455 11,100 -420 Descending FlightAware ADS-B (KASH)
04:38PM 41.8787 -71.0689 61° Northeast 333 383 11,100  Level FlightAware ADS-B (KASH)
04:39PM 41.9221 -70.9679 60° Northeast 332 382 11,100 -180 Level FlightAware ADS-B (KASH)
04:40PM 41.9846 -70.8230 60° Northeast 328 377 10,700 -480 Descending FlightAware ADS-B (KASH)
04:41PM 42.0171 -70.7534 53° Northeast 293 337 10,200 -840 Descending FlightAware ADS-B (KASH)
04:42PM 42.0403 -70.7182 48° Northeast 286 329 9,800 -1,200 Descending FlightAware ADS-B (KASH)
04:42PM 42.0425 -70.7149 48° Northeast 286 329 9,300 -1,380 Descending FlightAware ADS-B (KBOS)
04:43PM 42.1073 -70.6220 35° Northeast 275 316 8,100 -1,020 Descending FlightAware ADS-B (KASH)
04:43PM 42.1270 -70.6124 35° Northeast 275 316 8,100  Level FlightAware ADS-B (KASH)
04:44PM 42.1629 -70.6050 North 251 289 8,100 -1,380 Level FlightAware ADS-B (KBOS)
04:44PM 42.1969 -70.6129 337° Northwest 241 277 6,700 -2,400 Descending FlightAware ADS-B (KBOS)
04:44PM 42.2051 -70.6177 336° Northwest 240 276 6,500 -1,920 Descending FlightAware ADS-B (KBOS)
04:45PM 42.2301 -70.6323 337° Northwest 235 270 5,700 -2,280 Descending FlightAware ADS-B (KBOS)
04:45PM 42.2484 -70.6430 336° Northwest 240 276 4,900 -2,220 Descending FlightAware ADS-B (KBOS)
04:45PM 42.2705 -70.6559 337° Northwest 242 278 4,200 -2,040 Descending FlightAware ADS-B (KBOS)
04:46PM 42.2959 -70.6706 337° Northwest 240 276 3,400 -1,500 Descending FlightAware ADS-B (KBOS)
04:46PM 42.3166 -70.6826 337° Northwest 226 260 3,100 -480 Descending FlightAware ADS-B (KBOS)
04:46PM 42.3347 -70.6931 336° Northwest 200 230 3,100  Level FlightAware ADS-B (KBOS)
04:47PM 42.3510 -70.7026 337° Northwest 190 219 3,100  Level FlightAware ADS-B (KBOS)
04:47PM 42.3652 -70.7118 324° Northwest 182 209 3,100  Level FlightAware ADS-B (KBOS)
04:47PM 42.3705 -70.7181 312° West 183 211 3,100  Level FlightAware ADS-B (KBOS)
04:48PM 42.3884 -70.7492 307° West 182 209 3,100  Level FlightAware ADS-B (KBOS)
04:48PM 42.3966 -70.7673 287° West 183 211 3,100 -240 Level FlightAware ADS-B (KBOS)
04:48PM 42.3965 -70.7795 263° West 191 220 3,000 -900 Descending FlightAware ADS-B (KBOS)
04:49PM 42.3902 -70.8181 256° West 194 223 2,500 -1,020 Descending FlightAware ADS-B (KBOS)
04:49PM 42.3879 -70.8308 256° West 188 216 2,300 -1,020 Descending FlightAware ADS-B (KBOS)
04:49PM 42.3840 -70.8521 257° West 188 216 2,000 -840 Descending FlightAware ADS-B (KBOS)
04:50PM 42.3819 -70.8639 257° West 192 221 1,900 -900 Descending FlightAware ADS-B (KBOS)
04:50PM 42.3760 -70.8986 257° West 179 206 1,400 -960 Descending FlightAware ADS-B (KBOS)
04:50PM 42.3721 -70.9202 256° West 160 184 1,100 -900 Descending FlightAware ADS-B (KBOS)
04:51PM 42.3679 -70.9435 257° West 159 183 700 -900 Descending FlightAware ADS-B (KBOS)
04:52PM 42.3667 -70.9833 257° West 153 176 100 -900 Descending KA90